Accueil
METAR-TAF:

METAR-TAF

Aéroports :

Aérodrome de Maré - La Roche

Maré, Nouvelle-Calédonie

latitude: 21-28-53S, longitude: 168-02-15E, altitude: 42 m

METAR: absent

Heure: 01:10 (14:10 UTC)

Prévision

Le bulletin a été fait il y a 3 heures et 10 minutes, à 11:00 UTC
Prévision valable du 19 à 12 UTC au 20 à 12 UTC
Vent 10 kt de est/nord-est
Visibilité 10 km ou plus
Quelques nuages à une hauteur de 2500 ft
Nuages fragmentés à une hauteur de 13000 ft
Temporairement
du 19 à 12 UTC au 20 à 06 UTC
Visibilité: 4000 m
pluie
Evoluant progressivement
du 19 à 16 UTC au 19 à 19 UTC
Vent 10 kt de nord/nord-ouest
Probabilité 30% :
Temporairement
du 19 à 21 UTC au 20 à 03 UTC
Visibilité: 3000 m
Nuages épars à une hauteur de 1800 ft, Cumulus congestus.
averses de pluie

TAF: NWWR 191100Z 1912/2012 06010KT 9999 FEW025 BKN130 TEMPO 1912/2006 4000 RA BECMG 1916/1919 34010KT PROB30 TEMPO 1921/2003 3000 SHRA SCT018TCU

Observations et prévisions météorologiques de plus de 4000 aéroports (messages METAR et TAF).

Les stations disponibles sont représentées par des disques jaunes et rouges sur la carte.

Passer la souris dessus pour voir le nom de la station.

Cliquer dessus pour voir les observations et prévisions météorologiques.

Pour changer de carte: cliquez sur les boutons verts avec une croix noire pour zoomer, sur le bouton vert avec un tiret pour effectuer un zoom arrière, ou sur les flèches vertes pour les cartes adjacentes.


METAR-TAF: